createdAt,value
2017-10-14T00:01:30.469Z,14.99
2017-10-14T00:03:58.163Z,15.02
2017-10-14T00:06:25.814Z,15.05
2017-10-14T00:08:53.487Z,15.07
2017-10-14T00:11:21.133Z,15.09
2017-10-14T00:13:48.822Z,15.11
2017-10-14T00:16:17.491Z,15.13
2017-10-14T00:18:45.188Z,15.12
2017-10-14T00:21:12.789Z,15.12
2017-10-14T00:23:40.501Z,15.12
2017-10-14T00:26:08.163Z,15.11
2017-10-14T00:28:35.841Z,15.12
2017-10-14T00:31:03.501Z,15.10
2017-10-14T00:33:31.202Z,15.08
2017-10-14T00:35:58.853Z,15.06
2017-10-14T00:38:26.550Z,15.04
2017-10-14T00:40:54.141Z,15.03
2017-10-14T00:43:21.788Z,15.03
2017-10-14T00:45:49.464Z,15.04
2017-10-14T00:48:17.106Z,15.06
2017-10-14T00:50:44.817Z,15.05
2017-10-14T00:53:12.456Z,15.03
2017-10-14T00:55:40.163Z,15.06
2017-10-14T00:58:07.823Z,15.08
2017-10-14T01:00:35.520Z,15.10
2017-10-14T01:03:03.193Z,15.11
2017-10-14T01:05:30.882Z,15.10
2017-10-14T01:07:58.559Z,15.11
2017-10-14T01:10:26.262Z,15.10
2017-10-14T01:12:53.930Z,15.11
2017-10-14T01:15:21.672Z,15.09
2017-10-14T01:17:49.318Z,15.09
2017-10-14T01:20:17.002Z,15.11
2017-10-14T01:22:44.649Z,15.15
2017-10-14T01:25:12.344Z,15.20
2017-10-14T01:27:39.990Z,15.23
2017-10-14T01:30:07.716Z,15.26
2017-10-14T01:32:35.402Z,15.26
2017-10-14T01:35:03.114Z,15.27
2017-10-14T01:37:30.773Z,15.27
2017-10-14T01:39:58.414Z,15.31
2017-10-14T01:42:26.090Z,15.31
2017-10-14T01:44:53.731Z,15.33
2017-10-14T01:47:21.434Z,15.35
2017-10-14T01:49:49.087Z,15.37
2017-10-14T01:52:16.777Z,15.38
2017-10-14T01:54:44.421Z,15.44
2017-10-14T01:57:12.108Z,15.45
2017-10-14T01:59:39.763Z,15.45
2017-10-14T02:02:07.464Z,15.45
2017-10-14T02:04:35.107Z,15.42
2017-10-14T02:07:02.800Z,15.38
2017-10-14T02:09:30.459Z,15.35
2017-10-14T02:11:58.151Z,15.27
2017-10-14T02:14:25.816Z,15.21
2017-10-14T02:16:53.535Z,15.16
2017-10-14T02:19:21.182Z,15.13
2017-10-14T02:21:48.863Z,15.13
2017-10-14T02:24:16.508Z,15.15
2017-10-14T02:26:44.196Z,15.14
2017-10-14T02:29:11.845Z,15.09
2017-10-14T02:31:39.479Z,15.04
2017-10-14T02:34:07.169Z,15.00
2017-10-14T02:36:34.805Z,14.96
2017-10-14T02:39:02.476Z,14.90
2017-10-14T02:41:30.127Z,14.88
2017-10-14T02:43:57.811Z,14.86
2017-10-14T02:46:25.454Z,14.87
2017-10-14T02:48:53.141Z,14.90
2017-10-14T02:51:20.781Z,14.93
2017-10-14T02:53:48.479Z,14.98
2017-10-14T02:56:16.071Z,15.04
2017-10-14T02:58:43.748Z,15.09
2017-10-14T03:01:11.394Z,15.13
2017-10-14T03:03:39.084Z,15.17
2017-10-14T03:06:06.730Z,15.18
2017-10-14T03:08:34.431Z,15.22
2017-10-14T03:11:02.077Z,15.26
2017-10-14T03:13:29.761Z,15.28
2017-10-14T03:15:57.449Z,15.32
2017-10-14T03:18:25.144Z,15.35
2017-10-14T03:20:52.791Z,15.38
2017-10-14T03:23:20.447Z,15.40
2017-10-14T03:25:48.071Z,15.43
2017-10-14T03:28:15.718Z,15.44
2017-10-14T03:30:43.398Z,15.45
2017-10-14T03:33:11.046Z,15.48
2017-10-14T03:35:38.724Z,15.51
2017-10-14T03:38:06.311Z,15.55
2017-10-14T03:40:33.996Z,15.55
2017-10-14T03:43:01.684Z,15.57
2017-10-14T03:45:29.361Z,15.59
2017-10-14T03:47:57.003Z,15.62
2017-10-14T03:50:24.690Z,15.63
2017-10-14T03:52:52.332Z,15.63
2017-10-14T03:55:20.010Z,15.62
2017-10-14T03:57:47.678Z,15.64
2017-10-14T04:00:15.369Z,15.65
2017-10-14T04:02:43.043Z,15.65
2017-10-14T04:05:10.734Z,15.66
2017-10-14T04:07:38.367Z,15.66
2017-10-14T04:10:06.062Z,15.66
2017-10-14T04:12:33.705Z,15.72
2017-10-14T04:15:01.402Z,15.75
2017-10-14T04:17:29.087Z,15.76
2017-10-14T04:19:56.732Z,15.77
2017-10-14T04:22:24.410Z,15.77
2017-10-14T04:24:51.994Z,15.77
2017-10-14T04:27:19.676Z,15.76
2017-10-14T04:29:47.342Z,15.76
2017-10-14T04:32:16.035Z,15.74
2017-10-14T04:34:43.687Z,15.75
2017-10-14T04:37:11.393Z,15.75
2017-10-14T04:39:39.046Z,15.76
2017-10-14T04:42:06.738Z,15.78
2017-10-14T04:44:34.415Z,15.80
2017-10-14T04:47:02.123Z,15.81
2017-10-14T04:49:29.812Z,15.82
2017-10-14T04:51:57.486Z,15.83
2017-10-14T04:54:25.126Z,15.84
2017-10-14T04:56:52.746Z,15.85
2017-10-14T04:59:20.395Z,15.87
2017-10-14T05:01:48.082Z,15.86
2017-10-14T05:04:15.741Z,15.86
2017-10-14T05:06:43.442Z,15.86
2017-10-14T05:09:11.117Z,15.85
2017-10-14T05:11:38.789Z,15.84
2017-10-14T05:14:06.446Z,15.85
2017-10-14T05:16:34.150Z,15.85
2017-10-14T05:19:01.821Z,15.84
2017-10-14T05:21:29.453Z,15.84
2017-10-14T05:23:57.058Z,15.84
2017-10-14T05:26:24.744Z,15.84
2017-10-14T05:28:52.427Z,15.83
2017-10-14T05:31:20.076Z,15.84
2017-10-14T05:33:47.775Z,15.83
2017-10-14T05:36:15.435Z,15.83
2017-10-14T05:38:43.046Z,15.81
2017-10-14T05:41:10.703Z,15.80
2017-10-14T05:43:38.398Z,15.81
2017-10-14T05:46:06.050Z,15.81
2017-10-14T05:48:33.732Z,15.82
2017-10-14T05:51:01.376Z,15.83
2017-10-14T05:53:29.078Z,15.85
2017-10-14T05:55:56.732Z,15.85
2017-10-14T05:58:24.353Z,15.86
2017-10-14T06:00:51.986Z,15.87
2017-10-14T06:03:19.673Z,15.88
2017-10-14T06:05:47.290Z,15.89
2017-10-14T06:08:14.906Z,15.91
2017-10-14T06:10:42.519Z,15.95
2017-10-14T06:13:10.147Z,15.97
2017-10-14T06:15:37.735Z,15.98
2017-10-14T06:18:05.366Z,15.97
2017-10-14T06:20:32.976Z,15.99
2017-10-14T06:23:00.618Z,16.02
2017-10-14T06:25:28.195Z,16.04
2017-10-14T06:27:55.789Z,16.06
2017-10-14T06:30:23.416Z,16.09
2017-10-14T06:32:51.006Z,16.12
2017-10-14T06:35:18.628Z,16.14
2017-10-14T06:37:46.233Z,16.15
2017-10-14T06:40:13.859Z,16.18
2017-10-14T06:42:41.462Z,16.23
2017-10-14T06:45:09.083Z,16.28
2017-10-14T06:47:36.668Z,16.35
2017-10-14T06:50:04.296Z,16.43
2017-10-14T06:52:31.889Z,16.48
2017-10-14T06:54:59.537Z,16.48
2017-10-14T06:57:27.152Z,16.46
2017-10-14T06:59:54.778Z,16.42
2017-10-14T07:02:22.362Z,16.38
2017-10-14T07:04:49.982Z,16.36
2017-10-14T07:07:17.583Z,16.39
2017-10-14T07:09:45.192Z,16.45
2017-10-14T07:12:12.981Z,16.51
2017-10-14T07:14:40.623Z,16.58
2017-10-14T07:17:08.224Z,16.65
2017-10-14T07:19:35.820Z,16.72
2017-10-14T07:22:03.439Z,16.77
2017-10-14T07:24:31.039Z,16.83
2017-10-14T07:26:58.696Z,16.86
2017-10-14T07:29:26.283Z,16.88
2017-10-14T07:31:53.904Z,16.89
2017-10-14T07:34:21.506Z,16.91
2017-10-14T07:36:49.126Z,16.93
2017-10-14T07:39:16.709Z,16.89
2017-10-14T07:41:44.343Z,16.86
2017-10-14T07:44:11.946Z,16.83
2017-10-14T07:46:39.589Z,16.82
2017-10-14T07:49:07.183Z,16.81
2017-10-14T07:51:34.807Z,16.84
2017-10-14T07:54:02.415Z,16.87
2017-10-14T07:56:30.037Z,16.93
2017-10-14T07:58:57.624Z,16.96
2017-10-14T08:01:25.255Z,16.98
2017-10-14T08:03:52.846Z,17.00
2017-10-14T08:06:20.518Z,17.03
2017-10-14T08:08:48.110Z,17.08
2017-10-14T08:11:15.752Z,17.08
2017-10-14T08:13:43.367Z,17.08
2017-10-14T08:16:10.971Z,17.08
2017-10-14T08:18:38.695Z,17.10
2017-10-14T08:21:06.305Z,17.10
2017-10-14T08:23:33.947Z,17.13
2017-10-14T08:26:01.550Z,17.19
2017-10-14T08:28:29.187Z,17.26
2017-10-14T08:30:56.786Z,17.32
2017-10-14T08:33:24.420Z,17.42
2017-10-14T08:35:52.001Z,17.48
2017-10-14T08:38:19.631Z,17.54
2017-10-14T08:40:47.287Z,17.60
2017-10-14T08:43:15.004Z,17.70
2017-10-14T08:45:42.611Z,17.78
2017-10-14T08:48:10.323Z,17.87
2017-10-14T08:50:37.962Z,17.89
2017-10-14T08:53:05.589Z,17.83
2017-10-14T08:55:33.265Z,17.76
2017-10-14T08:58:00.936Z,17.65
2017-10-14T09:00:28.562Z,17.58
2017-10-14T09:02:56.266Z,17.55
2017-10-14T09:05:23.953Z,17.54
2017-10-14T09:07:51.605Z,17.56
2017-10-14T09:10:19.384Z,17.60
2017-10-14T09:12:47.021Z,17.64
2017-10-14T09:15:14.739Z,17.64
2017-10-14T09:17:42.335Z,17.64
2017-10-14T09:20:10.040Z,17.60
2017-10-14T09:22:37.698Z,17.53
2017-10-14T09:25:05.398Z,17.51
2017-10-14T09:27:33.093Z,17.55
2017-10-14T09:30:00.802Z,17.59
2017-10-14T09:32:28.464Z,17.66
2017-10-14T09:34:56.185Z,17.88
2017-10-14T09:37:23.844Z,18.25
2017-10-14T09:39:51.519Z,18.45
2017-10-14T09:42:19.159Z,18.55
2017-10-14T09:44:46.843Z,18.64
2017-10-14T09:47:14.514Z,18.76
2017-10-14T09:49:42.222Z,19.05
2017-10-14T09:52:09.890Z,19.16
2017-10-14T09:54:37.602Z,19.22
2017-10-14T09:57:05.269Z,19.16
2017-10-14T09:59:32.913Z,18.99
2017-10-14T10:02:00.649Z,18.76
2017-10-14T10:04:28.308Z,18.59
2017-10-14T10:06:55.984Z,18.46
2017-10-14T10:09:23.641Z,18.33
2017-10-14T10:11:51.316Z,18.28
2017-10-14T10:14:18.962Z,18.25
2017-10-14T10:16:47.606Z,18.16
2017-10-14T10:19:15.263Z,18.11
2017-10-14T10:21:42.968Z,17.96
2017-10-14T10:24:10.619Z,17.89
2017-10-14T10:26:38.300Z,17.87
2017-10-14T10:29:05.970Z,17.93
2017-10-14T10:31:33.677Z,17.95
2017-10-14T10:34:01.323Z,17.97
2017-10-14T10:36:29.011Z,18.03
2017-10-14T10:38:56.757Z,18.22
2017-10-14T10:41:24.828Z,18.42
2017-10-14T10:43:52.486Z,18.53
2017-10-14T10:46:20.165Z,18.58
2017-10-14T10:48:47.911Z,18.60
2017-10-14T10:51:15.590Z,18.63
2017-10-14T10:53:43.230Z,19.02
2017-10-14T10:56:10.891Z,19.47
2017-10-14T10:58:38.608Z,19.39
2017-10-14T11:01:06.271Z,19.26
2017-10-14T11:03:33.968Z,19.26
2017-10-14T11:06:01.607Z,19.25
2017-10-14T11:08:29.296Z,19.20
2017-10-14T11:10:56.955Z,19.23
2017-10-14T11:13:24.636Z,19.30
2017-10-14T11:15:52.327Z,19.30
2017-10-14T11:18:20.010Z,19.30
2017-10-14T11:20:47.667Z,19.33
2017-10-14T11:23:15.380Z,19.48
2017-10-14T11:25:43.043Z,19.65
2017-10-14T11:28:10.669Z,19.83
2017-10-14T11:30:38.333Z,19.91
2017-10-14T11:33:06.050Z,19.92
2017-10-14T11:35:33.718Z,19.73
2017-10-14T11:38:01.440Z,19.37
2017-10-14T11:40:29.091Z,19.07
2017-10-14T11:42:56.774Z,18.90
2017-10-14T11:45:24.375Z,18.74
2017-10-14T11:47:52.074Z,18.66
2017-10-14T11:50:19.739Z,18.57
2017-10-14T11:52:47.465Z,18.48
2017-10-14T11:55:15.126Z,18.41
2017-10-14T11:57:42.804Z,18.42
2017-10-14T12:00:10.513Z,18.41
2017-10-14T12:02:38.174Z,18.41
2017-10-14T12:05:05.865Z,18.33
2017-10-14T12:07:33.548Z,18.33
2017-10-14T12:10:01.231Z,18.27
2017-10-14T12:12:28.911Z,18.23
2017-10-14T12:14:56.610Z,18.16
2017-10-14T12:17:24.290Z,18.18
2017-10-14T12:19:51.990Z,18.22
2017-10-14T12:22:19.634Z,18.24
2017-10-14T12:24:47.316Z,18.25
2017-10-14T12:27:14.985Z,18.26
2017-10-14T12:29:42.737Z,18.27
2017-10-14T12:32:10.386Z,18.26
2017-10-14T12:34:38.074Z,18.23
2017-10-14T12:37:05.731Z,18.23
2017-10-14T12:39:33.422Z,18.22
2017-10-14T12:42:01.554Z,18.22
2017-10-14T12:44:29.278Z,18.18
2017-10-14T12:46:56.924Z,18.16
2017-10-14T12:49:24.621Z,18.14
2017-10-14T12:51:52.305Z,18.18
2017-10-14T12:54:19.981Z,18.22
2017-10-14T12:56:47.651Z,18.41
2017-10-14T12:59:15.352Z,18.69
2017-10-14T13:01:43.026Z,18.92
2017-10-14T13:04:10.687Z,19.11
2017-10-14T13:06:38.375Z,19.26
2017-10-14T13:09:06.045Z,19.36
2017-10-14T13:11:33.892Z,19.38
2017-10-14T13:14:01.559Z,19.43
2017-10-14T13:16:29.306Z,19.49
2017-10-14T13:18:56.957Z,19.48
2017-10-14T13:21:24.635Z,19.39
2017-10-14T13:23:52.284Z,19.33
2017-10-14T13:26:19.984Z,19.17
2017-10-14T13:28:47.652Z,19.13
2017-10-14T13:31:15.299Z,19.07
2017-10-14T13:33:42.960Z,19.01
2017-10-14T13:36:10.651Z,18.99
2017-10-14T13:38:38.310Z,18.95
2017-10-14T13:41:05.990Z,18.95
2017-10-14T13:43:33.649Z,18.92
2017-10-14T13:46:01.331Z,18.88
2017-10-14T13:48:29.026Z,18.81
2017-10-14T13:50:56.723Z,18.73
2017-10-14T13:53:24.386Z,18.66
2017-10-14T13:55:52.111Z,18.60
2017-10-14T13:58:19.771Z,18.55
2017-10-14T14:00:47.426Z,18.40
2017-10-14T14:03:15.149Z,18.32
2017-10-14T14:05:42.824Z,18.33
2017-10-14T14:08:10.519Z,18.35
2017-10-14T14:10:38.177Z,18.36
2017-10-14T14:13:05.869Z,18.32
2017-10-14T14:15:33.536Z,18.35
2017-10-14T14:18:01.247Z,18.38
2017-10-14T14:20:28.895Z,18.43
2017-10-14T14:22:56.601Z,18.40
2017-10-14T14:25:24.271Z,18.41
2017-10-14T14:27:51.982Z,18.41
2017-10-14T14:30:19.648Z,18.43
2017-10-14T14:32:47.363Z,18.40
2017-10-14T14:35:15.052Z,18.38
2017-10-14T14:37:42.857Z,18.38
2017-10-14T14:40:10.570Z,18.39
2017-10-14T14:42:38.219Z,18.39
2017-10-14T14:45:05.866Z,18.34
2017-10-14T14:47:33.556Z,18.25
2017-10-14T14:50:01.210Z,18.22
2017-10-14T14:52:28.892Z,18.21
2017-10-14T14:54:56.562Z,18.18
2017-10-14T14:57:24.262Z,18.16
2017-10-14T14:59:51.933Z,18.11
2017-10-14T15:02:19.604Z,18.07
2017-10-14T15:04:47.310Z,18.03
2017-10-14T15:07:14.968Z,17.97
2017-10-14T15:09:42.674Z,17.91
2017-10-14T15:12:10.333Z,17.88
2017-10-14T15:14:38.043Z,17.85
2017-10-14T15:17:06.831Z,17.85
2017-10-14T15:19:34.511Z,17.85
2017-10-14T15:22:02.168Z,17.84
2017-10-14T15:24:29.880Z,17.84
2017-10-14T15:26:57.557Z,17.82
2017-10-14T15:29:25.272Z,17.79
2017-10-14T15:31:52.978Z,17.74
2017-10-14T15:34:20.665Z,17.67
2017-10-14T15:36:48.350Z,17.64
2017-10-14T15:39:16.028Z,17.61
2017-10-14T15:41:43.678Z,17.57
2017-10-14T15:44:11.375Z,17.54
2017-10-14T15:46:39.039Z,17.52
2017-10-14T15:49:06.731Z,17.51
2017-10-14T15:51:34.423Z,17.49
2017-10-14T15:54:02.117Z,17.48
2017-10-14T15:56:29.787Z,17.46
2017-10-14T15:58:57.484Z,17.42
2017-10-14T16:01:25.125Z,17.41
2017-10-14T16:03:52.825Z,17.39
2017-10-14T16:06:20.496Z,17.37
2017-10-14T16:08:48.211Z,17.34
2017-10-14T16:11:15.878Z,17.31
2017-10-14T16:13:43.540Z,17.33
2017-10-14T16:16:11.266Z,17.31
2017-10-14T16:18:38.960Z,17.31
2017-10-14T16:21:06.692Z,17.29
2017-10-14T16:23:34.301Z,17.28
2017-10-14T16:26:02.018Z,17.29
2017-10-14T16:28:29.725Z,17.27
2017-10-14T16:30:57.415Z,17.25
2017-10-14T16:33:25.080Z,17.24
2017-10-14T16:35:52.767Z,17.21
2017-10-14T16:38:20.440Z,17.18
2017-10-14T16:40:48.128Z,17.16
2017-10-14T16:43:15.780Z,17.15
2017-10-14T16:45:43.473Z,17.12
2017-10-14T16:48:11.116Z,17.10
2017-10-14T16:50:38.826Z,17.08
2017-10-14T16:53:06.424Z,17.06
2017-10-14T16:55:34.119Z,17.07
2017-10-14T16:58:01.772Z,17.06
2017-10-14T17:00:29.508Z,17.07
2017-10-14T17:02:57.219Z,17.02
2017-10-14T17:05:24.867Z,16.98
2017-10-14T17:07:52.563Z,16.96
2017-10-14T17:10:20.278Z,16.93
2017-10-14T17:12:47.984Z,16.92
2017-10-14T17:15:15.641Z,16.88
2017-10-14T17:17:44.327Z,16.86
2017-10-14T17:20:11.987Z,16.83
2017-10-14T17:22:39.699Z,16.82
2017-10-14T17:25:07.375Z,16.79
2017-10-14T17:27:35.074Z,16.76
2017-10-14T17:30:02.757Z,16.72
2017-10-14T17:32:30.385Z,16.71
2017-10-14T17:34:58.009Z,16.68
2017-10-14T17:37:25.654Z,16.67
2017-10-14T17:39:53.305Z,16.64
2017-10-14T17:42:20.923Z,16.64
2017-10-14T17:44:48.605Z,16.62
2017-10-14T17:47:16.229Z,16.65
2017-10-14T17:49:43.892Z,16.70
2017-10-14T17:52:11.586Z,16.72
2017-10-14T17:54:39.240Z,16.73
2017-10-14T17:57:06.946Z,16.71
2017-10-14T17:59:34.594Z,16.67
2017-10-14T18:02:02.282Z,16.61
2017-10-14T18:04:29.869Z,16.52
2017-10-14T18:06:57.571Z,16.42
2017-10-14T18:09:25.225Z,16.34
2017-10-14T18:11:52.907Z,16.25
2017-10-14T18:14:20.575Z,16.17
2017-10-14T18:16:49.169Z,16.11
2017-10-14T18:19:16.818Z,16.03
2017-10-14T18:21:44.540Z,15.98
2017-10-14T18:24:12.207Z,15.93
2017-10-14T18:26:39.867Z,15.89
2017-10-14T18:29:07.578Z,15.86
2017-10-14T18:31:35.261Z,15.84
2017-10-14T18:34:02.976Z,15.83
2017-10-14T18:36:30.628Z,15.82
2017-10-14T18:38:58.329Z,15.79
2017-10-14T18:41:25.978Z,15.77
2017-10-14T18:43:53.659Z,15.76
2017-10-14T18:46:21.344Z,15.73
2017-10-14T18:48:49.036Z,15.68
2017-10-14T18:51:16.655Z,15.64
2017-10-14T18:53:44.363Z,15.59
2017-10-14T18:56:12.059Z,15.54
2017-10-14T18:58:39.735Z,15.51
2017-10-14T19:01:07.335Z,15.47
2017-10-14T19:03:35.036Z,15.48
2017-10-14T19:06:02.707Z,15.47
2017-10-14T19:08:30.385Z,15.45
2017-10-14T19:10:58.051Z,15.41
2017-10-14T19:13:25.706Z,15.39
2017-10-14T19:15:53.306Z,15.37
2017-10-14T19:18:21.002Z,15.34
2017-10-14T19:20:48.674Z,15.31
2017-10-14T19:23:16.315Z,15.30
2017-10-14T19:25:43.942Z,15.27
2017-10-14T19:28:11.647Z,15.25
2017-10-14T19:30:39.308Z,15.26
2017-10-14T19:33:07.006Z,15.29
2017-10-14T19:35:34.660Z,15.29
2017-10-14T19:38:02.360Z,15.28
2017-10-14T19:40:30.038Z,15.27
2017-10-14T19:42:57.717Z,15.26
2017-10-14T19:45:25.425Z,15.24
2017-10-14T19:47:53.115Z,15.25
2017-10-14T19:50:20.727Z,15.22
2017-10-14T19:52:48.435Z,15.21
2017-10-14T19:55:16.107Z,15.22
2017-10-14T19:57:43.819Z,15.22
2017-10-14T20:00:11.483Z,15.23
2017-10-14T20:02:39.143Z,15.23
2017-10-14T20:05:06.849Z,15.21
2017-10-14T20:07:34.499Z,15.21
2017-10-14T20:10:02.191Z,15.19
2017-10-14T20:12:29.881Z,15.14
2017-10-14T20:14:57.571Z,15.07
2017-10-14T20:17:25.153Z,14.98
2017-10-14T20:19:52.840Z,14.92
2017-10-14T20:22:20.497Z,14.86
2017-10-14T20:24:48.195Z,14.80
2017-10-14T20:27:15.843Z,14.73
2017-10-14T20:29:43.527Z,14.69
2017-10-14T20:32:11.186Z,14.66
2017-10-14T20:34:38.882Z,14.62
2017-10-14T20:37:06.469Z,14.59
2017-10-14T20:39:34.188Z,14.55
2017-10-14T20:42:01.794Z,14.47
2017-10-14T20:44:29.426Z,14.38
2017-10-14T20:46:57.443Z,14.30
2017-10-14T20:49:26.058Z,14.25
2017-10-14T20:51:53.736Z,14.21
2017-10-14T20:54:21.430Z,14.17
2017-10-14T20:56:49.097Z,14.12
2017-10-14T20:59:16.785Z,14.10
2017-10-14T21:01:44.480Z,14.08
2017-10-14T21:04:12.154Z,14.07
2017-10-14T21:06:39.870Z,14.06
2017-10-14T21:09:07.519Z,14.11
2017-10-14T21:11:35.215Z,14.19
2017-10-14T21:14:02.866Z,14.27
2017-10-14T21:16:31.777Z,14.32
2017-10-14T21:18:59.436Z,14.35
2017-10-14T21:21:27.091Z,14.43
2017-10-14T21:23:54.742Z,14.47
2017-10-14T21:26:22.442Z,14.50
2017-10-14T21:28:50.126Z,14.50
2017-10-14T21:31:17.808Z,14.51
2017-10-14T21:33:45.456Z,14.49
2017-10-14T21:36:13.169Z,14.46
2017-10-14T21:38:40.826Z,14.44
2017-10-14T21:41:08.507Z,14.37
2017-10-14T21:43:36.167Z,14.30
2017-10-14T21:46:03.866Z,14.28
2017-10-14T21:48:31.516Z,14.29
2017-10-14T21:50:59.209Z,14.26
2017-10-14T21:53:26.857Z,14.24
2017-10-14T21:55:54.546Z,14.23
2017-10-14T21:58:22.198Z,14.22
2017-10-14T22:00:49.825Z,14.18
2017-10-14T22:03:19.542Z,14.12
2017-10-14T22:05:47.275Z,14.09
2017-10-14T22:08:14.939Z,14.04
2017-10-14T22:10:42.569Z,14.01
2017-10-14T22:13:10.220Z,13.99
2017-10-14T22:15:37.942Z,13.96
2017-10-14T22:18:05.581Z,13.90
2017-10-14T22:20:33.267Z,13.87
2017-10-14T22:23:00.925Z,13.82
2017-10-14T22:25:28.628Z,13.79
2017-10-14T22:27:56.287Z,13.77
2017-10-14T22:30:23.999Z,13.76
2017-10-14T22:32:51.578Z,13.77
2017-10-14T22:35:19.170Z,13.76
2017-10-14T22:37:46.849Z,13.75
2017-10-14T22:40:14.435Z,13.74
2017-10-14T22:42:42.054Z,13.71
2017-10-14T22:45:09.699Z,13.68
2017-10-14T22:47:37.377Z,13.63
2017-10-14T22:50:05.043Z,13.59
2017-10-14T22:52:33.605Z,13.55
2017-10-14T22:55:01.211Z,13.49
2017-10-14T22:57:28.895Z,13.43
2017-10-14T22:59:56.500Z,13.37
2017-10-14T23:02:24.118Z,13.31
2017-10-14T23:04:51.762Z,13.30
2017-10-14T23:07:19.452Z,13.31
2017-10-14T23:09:47.108Z,13.31
2017-10-14T23:12:14.794Z,13.28
2017-10-14T23:14:42.442Z,13.25
2017-10-14T23:17:10.183Z,13.27
2017-10-14T23:19:37.823Z,13.27
2017-10-14T23:22:06.236Z,13.29
2017-10-14T23:24:33.937Z,13.34
2017-10-14T23:27:01.578Z,13.39
2017-10-14T23:29:29.258Z,13.42
2017-10-14T23:31:56.842Z,13.40
2017-10-14T23:34:24.467Z,13.40
2017-10-14T23:36:52.119Z,13.41
2017-10-14T23:39:19.804Z,13.41
2017-10-14T23:41:47.388Z,13.38
2017-10-14T23:44:15.074Z,13.33
2017-10-14T23:46:42.756Z,13.27
2017-10-14T23:49:10.466Z,13.25
2017-10-14T23:51:38.107Z,13.20
2017-10-14T23:54:05.795Z,13.04
2017-10-14T23:56:33.446Z,12.95
2017-10-14T23:59:01.133Z,12.92
